sensor_id;sensor_type;location;lat;lon;timestamp;P1;durP1;ratioP1;P2;durP2;ratioP2
20318;SDS011;10317;47.254;11.314;2022-08-19T00:00:24;2.35;;;2.25;;
20318;SDS011;10317;47.254;11.314;2022-08-19T00:02:50;4.18;;;2.95;;
20318;SDS011;10317;47.254;11.314;2022-08-19T00:05:16;3.42;;;2.63;;
20318;SDS011;10317;47.254;11.314;2022-08-19T00:07:44;2.50;;;2.40;;
20318;SDS011;10317;47.254;11.314;2022-08-19T00:10:11;3.30;;;2.83;;
20318;SDS011;10317;47.254;11.314;2022-08-19T00:12:39;2.80;;;2.42;;
20318;SDS011;10317;47.254;11.314;2022-08-19T00:15:06;3.58;;;2.70;;
20318;SDS011;10317;47.254;11.314;2022-08-19T00:17:37;4.25;;;3.45;;
20318;SDS011;10317;47.254;11.314;2022-08-19T00:20:08;5.00;;;3.20;;
20318;SDS011;10317;47.254;11.314;2022-08-19T00:22:37;4.63;;;3.47;;
20318;SDS011;10317;47.254;11.314;2022-08-19T00:25:04;3.28;;;2.97;;
20318;SDS011;10317;47.254;11.314;2022-08-19T00:27:31;5.70;;;3.28;;
20318;SDS011;10317;47.254;11.314;2022-08-19T00:29:57;4.90;;;2.60;;
20318;SDS011;10317;47.254;11.314;2022-08-19T00:32:23;3.95;;;3.63;;
20318;SDS011;10317;47.254;11.314;2022-08-19T00:34:50;5.72;;;3.78;;
20318;SDS011;10317;47.254;11.314;2022-08-19T00:37:17;3.90;;;3.08;;
20318;SDS011;10317;47.254;11.314;2022-08-19T00:39:45;3.13;;;2.83;;
20318;SDS011;10317;47.254;11.314;2022-08-19T00:42:10;6.78;;;3.28;;
20318;SDS011;10317;47.254;11.314;2022-08-19T00:44:36;3.03;;;2.83;;
20318;SDS011;10317;47.254;11.314;2022-08-19T00:47:03;2.75;;;2.58;;
20318;SDS011;10317;47.254;11.314;2022-08-19T00:49:34;4.22;;;3.67;;
20318;SDS011;10317;47.254;11.314;2022-08-19T00:52:04;3.17;;;2.83;;
20318;SDS011;10317;47.254;11.314;2022-08-19T00:54:37;3.08;;;2.78;;
20318;SDS011;10317;47.254;11.314;2022-08-19T00:57:05;3.20;;;3.00;;
20318;SDS011;10317;47.254;11.314;2022-08-19T00:59:34;2.70;;;2.50;;
20318;SDS011;10317;47.254;11.314;2022-08-19T01:02:02;4.05;;;3.08;;
20318;SDS011;10317;47.254;11.314;2022-08-19T01:04:29;4.28;;;3.00;;
20318;SDS011;10317;47.254;11.314;2022-08-19T01:06:55;4.32;;;2.95;;
20318;SDS011;10317;47.254;11.314;2022-08-19T01:09:21;3.50;;;2.97;;
20318;SDS011;10317;47.254;11.314;2022-08-19T01:11:47;7.45;;;3.28;;
20318;SDS011;10317;47.254;11.314;2022-08-19T01:14:12;3.45;;;3.20;;
20318;SDS011;10317;47.254;11.314;2022-08-19T01:16:40;3.53;;;2.67;;
20318;SDS011;10317;47.254;11.314;2022-08-19T01:19:11;3.30;;;3.00;;
20318;SDS011;10317;47.254;11.314;2022-08-19T01:21:45;5.07;;;3.35;;
20318;SDS011;10317;47.254;11.314;2022-08-19T01:24:16;4.72;;;2.88;;
20318;SDS011;10317;47.254;11.314;2022-08-19T01:26:42;3.38;;;2.67;;
20318;SDS011;10317;47.254;11.314;2022-08-19T01:29:10;3.28;;;2.95;;
20318;SDS011;10317;47.254;11.314;2022-08-19T01:31:36;3.13;;;2.78;;
20318;SDS011;10317;47.254;11.314;2022-08-19T01:34:04;3.33;;;2.75;;
20318;SDS011;10317;47.254;11.314;2022-08-19T01:36:32;2.97;;;2.50;;
20318;SDS011;10317;47.254;11.314;2022-08-19T01:39:02;5.75;;;3.20;;
20318;SDS011;10317;47.254;11.314;2022-08-19T01:41:30;2.50;;;2.40;;
20318;SDS011;10317;47.254;11.314;2022-08-19T01:43:56;3.15;;;2.53;;
20318;SDS011;10317;47.254;11.314;2022-08-19T01:46:21;3.03;;;2.50;;
20318;SDS011;10317;47.254;11.314;2022-08-19T01:48:47;3.20;;;2.90;;
20318;SDS011;10317;47.254;11.314;2022-08-19T01:51:13;2.55;;;2.35;;
20318;SDS011;10317;47.254;11.314;2022-08-19T01:53:39;3.33;;;2.70;;
20318;SDS011;10317;47.254;11.314;2022-08-19T01:56:05;2.72;;;2.53;;
20318;SDS011;10317;47.254;11.314;2022-08-19T01:58:36;3.25;;;2.88;;
20318;SDS011;10317;47.254;11.314;2022-08-19T02:01:06;3.30;;;3.10;;
20318;SDS011;10317;47.254;11.314;2022-08-19T02:03:32;2.83;;;2.50;;
20318;SDS011;10317;47.254;11.314;2022-08-19T02:06:00;2.50;;;2.35;;
20318;SDS011;10317;47.254;11.314;2022-08-19T02:08:28;3.95;;;2.60;;
20318;SDS011;10317;47.254;11.314;2022-08-19T02:10:55;3.70;;;3.10;;
20318;SDS011;10317;47.254;11.314;2022-08-19T02:13:21;3.30;;;3.00;;
20318;SDS011;10317;47.254;11.314;2022-08-19T02:15:47;3.95;;;3.42;;
20318;SDS011;10317;47.254;11.314;2022-08-19T02:18:13;3.10;;;2.90;;
20318;SDS011;10317;47.254;11.314;2022-08-19T02:20:39;3.22;;;2.67;;
20318;SDS011;10317;47.254;11.314;2022-08-19T02:23:06;4.50;;;3.30;;
20318;SDS011;10317;47.254;11.314;2022-08-19T02:25:32;3.10;;;2.90;;
20318;SDS011;10317;47.254;11.314;2022-08-19T02:27:58;5.55;;;3.03;;
20318;SDS011;10317;47.254;11.314;2022-08-19T02:30:24;3.42;;;3.22;;
20318;SDS011;10317;47.254;11.314;2022-08-19T02:32:51;5.00;;;3.17;;
20318;SDS011;10317;47.254;11.314;2022-08-19T02:35:17;3.75;;;3.00;;
20318;SDS011;10317;47.254;11.314;2022-08-19T02:37:44;4.03;;;3.63;;
20318;SDS011;10317;47.254;11.314;2022-08-19T02:40:29;3.75;;;3.45;;
20318;SDS011;10317;47.254;11.314;2022-08-19T02:42:59;3.30;;;3.10;;
20318;SDS011;10317;47.254;11.314;2022-08-19T02:45:26;3.03;;;2.80;;
20318;SDS011;10317;47.254;11.314;2022-08-19T02:47:52;3.70;;;3.40;;
20318;SDS011;10317;47.254;11.314;2022-08-19T02:50:18;3.28;;;2.97;;
20318;SDS011;10317;47.254;11.314;2022-08-19T02:52:43;3.67;;;3.10;;
20318;SDS011;10317;47.254;11.314;2022-08-19T02:55:10;3.50;;;3.20;;
20318;SDS011;10317;47.254;11.314;2022-08-19T02:57:36;3.75;;;3.40;;
20318;SDS011;10317;47.254;11.314;2022-08-19T03:00:03;3.58;;;3.25;;
20318;SDS011;10317;47.254;11.314;2022-08-19T03:02:31;3.55;;;3.25;;
20318;SDS011;10317;47.254;11.314;2022-08-19T03:04:57;6.82;;;3.15;;
20318;SDS011;10317;47.254;11.314;2022-08-19T03:07:22;4.00;;;3.70;;
20318;SDS011;10317;47.254;11.314;2022-08-19T03:09:48;3.70;;;3.40;;
20318;SDS011;10317;47.254;11.314;2022-08-19T03:12:14;3.67;;;3.00;;
20318;SDS011;10317;47.254;11.314;2022-08-19T03:14:39;3.75;;;3.42;;
20318;SDS011;10317;47.254;11.314;2022-08-19T03:17:05;3.25;;;3.03;;
20318;SDS011;10317;47.254;11.314;2022-08-19T03:19:31;5.47;;;3.20;;
20318;SDS011;10317;47.254;11.314;2022-08-19T03:21:57;4.25;;;3.22;;
20318;SDS011;10317;47.254;11.314;2022-08-19T03:24:23;3.67;;;3.05;;
20318;SDS011;10317;47.254;11.314;2022-08-19T03:26:53;6.47;;;3.95;;
20318;SDS011;10317;47.254;11.314;2022-08-19T03:29:24;3.40;;;3.10;;
20318;SDS011;10317;47.254;11.314;2022-08-19T03:31:51;5.88;;;3.38;;
20318;SDS011;10317;47.254;11.314;2022-08-19T03:34:19;3.92;;;3.17;;
20318;SDS011;10317;47.254;11.314;2022-08-19T03:36:47;3.88;;;3.38;;
20318;SDS011;10317;47.254;11.314;2022-08-19T03:39:14;3.22;;;2.92;;
20318;SDS011;10317;47.254;11.314;2022-08-19T03:41:40;3.20;;;3.00;;
20318;SDS011;10317;47.254;11.314;2022-08-19T03:44:08;3.17;;;3.00;;
20318;SDS011;10317;47.254;11.314;2022-08-19T03:46:34;4.00;;;3.67;;
20318;SDS011;10317;47.254;11.314;2022-08-19T03:49:01;3.30;;;3.00;;
20318;SDS011;10317;47.254;11.314;2022-08-19T03:51:34;3.42;;;3.22;;
20318;SDS011;10317;47.254;11.314;2022-08-19T03:54:03;3.00;;;2.75;;
20318;SDS011;10317;47.254;11.314;2022-08-19T03:56:34;4.97;;;2.75;;
20318;SDS011;10317;47.254;11.314;2022-08-19T03:59:02;3.00;;;2.80;;
20318;SDS011;10317;47.254;11.314;2022-08-19T04:01:31;4.35;;;2.97;;
20318;SDS011;10317;47.254;11.314;2022-08-19T04:03:57;3.97;;;3.67;;
20318;SDS011;10317;47.254;11.314;2022-08-19T04:06:34;5.10;;;3.03;;
20318;SDS011;10317;47.254;11.314;2022-08-19T04:09:02;4.18;;;3.25;;
20318;SDS011;10317;47.254;11.314;2022-08-19T04:11:31;3.47;;;2.97;;
20318;SDS011;10317;47.254;11.314;2022-08-19T04:14:01;3.03;;;2.72;;
20318;SDS011;10317;47.254;11.314;2022-08-19T04:16:27;3.45;;;2.58;;
20318;SDS011;10317;47.254;11.314;2022-08-19T04:18:54;4.18;;;2.90;;
20318;SDS011;10317;47.254;11.314;2022-08-19T04:21:25;2.97;;;2.72;;
20318;SDS011;10317;47.254;11.314;2022-08-19T04:23:52;5.28;;;3.20;;
20318;SDS011;10317;47.254;11.314;2022-08-19T04:26:23;3.50;;;3.20;;
20318;SDS011;10317;47.254;11.314;2022-08-19T04:28:51;4.32;;;3.17;;
20318;SDS011;10317;47.254;11.314;2022-08-19T04:31:19;3.25;;;2.97;;
20318;SDS011;10317;47.254;11.314;2022-08-19T04:33:46;2.97;;;2.78;;
20318;SDS011;10317;47.254;11.314;2022-08-19T04:36:20;5.28;;;3.33;;
20318;SDS011;10317;47.254;11.314;2022-08-19T04:38:48;3.85;;;3.10;;
20318;SDS011;10317;47.254;11.314;2022-08-19T04:41:14;4.13;;;3.53;;
20318;SDS011;10317;47.254;11.314;2022-08-19T04:43:59;3.75;;;2.92;;
20318;SDS011;10317;47.254;11.314;2022-08-19T04:46:27;9.55;;;4.43;;
20318;SDS011;10317;47.254;11.314;2022-08-19T04:48:55;3.90;;;3.40;;
20318;SDS011;10317;47.254;11.314;2022-08-19T04:51:22;3.03;;;2.83;;
20318;SDS011;10317;47.254;11.314;2022-08-19T04:53:48;3.22;;;3.00;;
20318;SDS011;10317;47.254;11.314;2022-08-19T04:56:14;3.20;;;2.90;;
20318;SDS011;10317;47.254;11.314;2022-08-19T04:58:42;2.83;;;2.63;;
20318;SDS011;10317;47.254;11.314;2022-08-19T05:01:11;3.13;;;2.80;;
20318;SDS011;10317;47.254;11.314;2022-08-19T05:03:38;4.63;;;3.30;;
20318;SDS011;10317;47.254;11.314;2022-08-19T05:06:09;3.08;;;2.88;;
20318;SDS011;10317;47.254;11.314;2022-08-19T05:08:37;3.85;;;3.47;;
20318;SDS011;10317;47.254;11.314;2022-08-19T05:11:15;3.55;;;3.17;;
20318;SDS011;10317;47.254;11.314;2022-08-19T05:13:46;3.20;;;2.90;;
20318;SDS011;10317;47.254;11.314;2022-08-19T05:16:14;6.60;;;3.47;;
20318;SDS011;10317;47.254;11.314;2022-08-19T05:18:41;3.65;;;2.97;;
20318;SDS011;10317;47.254;11.314;2022-08-19T05:21:25;2.92;;;2.72;;
20318;SDS011;10317;47.254;11.314;2022-08-19T05:24:11;3.10;;;2.88;;
20318;SDS011;10317;47.254;11.314;2022-08-19T05:26:39;3.38;;;3.08;;
20318;SDS011;10317;47.254;11.314;2022-08-19T05:29:08;3.08;;;2.78;;
20318;SDS011;10317;47.254;11.314;2022-08-19T05:31:35;4.32;;;2.80;;
20318;SDS011;10317;47.254;11.314;2022-08-19T05:34:03;3.35;;;3.00;;
20318;SDS011;10317;47.254;11.314;2022-08-19T05:36:35;6.65;;;4.00;;
20318;SDS011;10317;47.254;11.314;2022-08-19T05:39:07;4.80;;;3.40;;
20318;SDS011;10317;47.254;11.314;2022-08-19T05:41:34;3.42;;;3.20;;
20318;SDS011;10317;47.254;11.314;2022-08-19T05:44:04;4.18;;;2.95;;
20318;SDS011;10317;47.254;11.314;2022-08-19T05:46:34;4.65;;;3.80;;
20318;SDS011;10317;47.254;11.314;2022-08-19T05:49:07;4.15;;;3.75;;
20318;SDS011;10317;47.254;11.314;2022-08-19T05:51:34;4.45;;;4.10;;
20318;SDS011;10317;47.254;11.314;2022-08-19T05:54:02;5.18;;;4.75;;
20318;SDS011;10317;47.254;11.314;2022-08-19T05:56:28;3.35;;;3.15;;
20318;SDS011;10317;47.254;11.314;2022-08-19T05:58:56;5.03;;;4.05;;
20318;SDS011;10317;47.254;11.314;2022-08-19T06:01:23;4.80;;;3.72;;
20318;SDS011;10317;47.254;11.314;2022-08-19T06:03:50;4.82;;;3.65;;
20318;SDS011;10317;47.254;11.314;2022-08-19T06:06:17;5.63;;;3.15;;
20318;SDS011;10317;47.254;11.314;2022-08-19T06:08:43;3.95;;;3.45;;
20318;SDS011;10317;47.254;11.314;2022-08-19T06:11:32;3.58;;;3.28;;
20318;SDS011;10317;47.254;11.314;2022-08-19T06:13:59;4.28;;;3.88;;
20318;SDS011;10317;47.254;11.314;2022-08-19T06:16:27;5.55;;;4.80;;
20318;SDS011;10317;47.254;11.314;2022-08-19T06:18:56;4.70;;;4.22;;
20318;SDS011;10317;47.254;11.314;2022-08-19T06:21:26;6.47;;;4.38;;
20318;SDS011;10317;47.254;11.314;2022-08-19T06:23:53;4.95;;;3.70;;
20318;SDS011;10317;47.254;11.314;2022-08-19T06:26:20;4.53;;;4.13;;
20318;SDS011;10317;47.254;11.314;2022-08-19T06:28:46;4.90;;;3.45;;
20318;SDS011;10317;47.254;11.314;2022-08-19T06:31:17;3.55;;;3.25;;
20318;SDS011;10317;47.254;11.314;2022-08-19T06:33:46;3.58;;;3.33;;
20318;SDS011;10317;47.254;11.314;2022-08-19T06:36:19;3.63;;;3.25;;
20318;SDS011;10317;47.254;11.314;2022-08-19T06:38:47;3.35;;;3.13;;
20318;SDS011;10317;47.254;11.314;2022-08-19T06:41:12;4.63;;;3.17;;
20318;SDS011;10317;47.254;11.314;2022-08-19T06:43:38;5.32;;;3.17;;
20318;SDS011;10317;47.254;11.314;2022-08-19T06:46:09;6.93;;;3.55;;
20318;SDS011;10317;47.254;11.314;2022-08-19T06:48:39;3.38;;;2.90;;
20318;SDS011;10317;47.254;11.314;2022-08-19T06:51:05;4.00;;;3.58;;
20318;SDS011;10317;47.254;11.314;2022-08-19T06:53:31;6.30;;;4.30;;
20318;SDS011;10317;47.254;11.314;2022-08-19T06:55:58;4.40;;;4.03;;
20318;SDS011;10317;47.254;11.314;2022-08-19T06:58:27;5.63;;;3.45;;
20318;SDS011;10317;47.254;11.314;2022-08-19T07:00:58;3.20;;;3.00;;
20318;SDS011;10317;47.254;11.314;2022-08-19T07:03:28;4.70;;;3.47;;
20318;SDS011;10317;47.254;11.314;2022-08-19T07:06:03;4.57;;;2.95;;
20318;SDS011;10317;47.254;11.314;2022-08-19T07:08:30;5.85;;;3.92;;
20318;SDS011;10317;47.254;11.314;2022-08-19T07:10:57;3.63;;;3.33;;
20318;SDS011;10317;47.254;11.314;2022-08-19T07:13:22;4.50;;;3.63;;
20318;SDS011;10317;47.254;11.314;2022-08-19T07:15:49;6.38;;;3.60;;
20318;SDS011;10317;47.254;11.314;2022-08-19T07:18:16;4.30;;;3.88;;
20318;SDS011;10317;47.254;11.314;2022-08-19T07:20:46;3.03;;;2.80;;
20318;SDS011;10317;47.254;11.314;2022-08-19T07:23:12;3.63;;;3.28;;
20318;SDS011;10317;47.254;11.314;2022-08-19T07:25:38;5.00;;;3.38;;
20318;SDS011;10317;47.254;11.314;2022-08-19T07:28:04;4.90;;;3.20;;
20318;SDS011;10317;47.254;11.314;2022-08-19T07:30:32;4.88;;;3.75;;
20318;SDS011;10317;47.254;11.314;2022-08-19T07:33:00;7.22;;;4.47;;
20318;SDS011;10317;47.254;11.314;2022-08-19T07:35:26;4.60;;;4.03;;
20318;SDS011;10317;47.254;11.314;2022-08-19T07:37:53;4.20;;;3.80;;
20318;SDS011;10317;47.254;11.314;2022-08-19T07:40:19;4.35;;;3.78;;
20318;SDS011;10317;47.254;11.314;2022-08-19T07:42:44;4.55;;;4.15;;
20318;SDS011;10317;47.254;11.314;2022-08-19T07:45:10;5.47;;;4.40;;
20318;SDS011;10317;47.254;11.314;2022-08-19T07:47:36;7.20;;;4.05;;
20318;SDS011;10317;47.254;11.314;2022-08-19T07:50:02;5.95;;;5.10;;
20318;SDS011;10317;47.254;11.314;2022-08-19T07:52:29;4.43;;;4.03;;
20318;SDS011;10317;47.254;11.314;2022-08-19T07:54:55;6.18;;;4.20;;
20318;SDS011;10317;47.254;11.314;2022-08-19T07:57:21;5.00;;;4.57;;
20318;SDS011;10317;47.254;11.314;2022-08-19T07:59:46;5.20;;;4.35;;
20318;SDS011;10317;47.254;11.314;2022-08-19T08:02:12;4.60;;;4.07;;
20318;SDS011;10317;47.254;11.314;2022-08-19T08:04:38;6.20;;;5.10;;
20318;SDS011;10317;47.254;11.314;2022-08-19T08:07:22;5.35;;;4.78;;
20318;SDS011;10317;47.254;11.314;2022-08-19T08:10:06;6.07;;;4.22;;
20318;SDS011;10317;47.254;11.314;2022-08-19T08:12:34;6.35;;;4.00;;
20318;SDS011;10317;47.254;11.314;2022-08-19T08:15:06;5.60;;;3.58;;
20318;SDS011;10317;47.254;11.314;2022-08-19T08:17:35;5.55;;;3.45;;
20318;SDS011;10317;47.254;11.314;2022-08-19T08:20:03;6.88;;;3.85;;
20318;SDS011;10317;47.254;11.314;2022-08-19T08:22:31;5.60;;;4.00;;
20318;SDS011;10317;47.254;11.314;2022-08-19T08:25:17;4.63;;;4.22;;
20318;SDS011;10317;47.254;11.314;2022-08-19T08:27:45;7.53;;;3.65;;
20318;SDS011;10317;47.254;11.314;2022-08-19T08:30:12;6.00;;;4.03;;
20318;SDS011;10317;47.254;11.314;2022-08-19T08:32:40;6.25;;;3.92;;
20318;SDS011;10317;47.254;11.314;2022-08-19T08:35:08;4.22;;;3.83;;
20318;SDS011;10317;47.254;11.314;2022-08-19T08:37:36;4.57;;;3.55;;
20318;SDS011;10317;47.254;11.314;2022-08-19T08:40:45;9.23;;;4.28;;
20318;SDS011;10317;47.254;11.314;2022-08-19T08:45:52;4.75;;;3.85;;
20318;SDS011;10317;47.254;11.314;2022-08-19T08:51:24;4.15;;;3.72;;
20318;SDS011;10317;47.254;11.314;2022-08-19T08:53:58;4.70;;;3.15;;
20318;SDS011;10317;47.254;11.314;2022-08-19T08:56:26;3.28;;;2.50;;
20318;SDS011;10317;47.254;11.314;2022-08-19T08:59:38;4.65;;;3.25;;
20318;SDS011;10317;47.254;11.314;2022-08-19T09:01:43;4.25;;;3.22;;
20318;SDS011;10317;47.254;11.314;2022-08-19T09:04:09;3.38;;;3.10;;
20318;SDS011;10317;47.254;11.314;2022-08-19T09:09:17;3.17;;;2.97;;
20318;SDS011;10317;47.254;11.314;2022-08-19T09:14:55;3.38;;;3.08;;
20318;SDS011;10317;47.254;11.314;2022-08-19T09:17:26;3.35;;;3.05;;
20318;SDS011;10317;47.254;11.314;2022-08-19T09:22:45;3.50;;;3.20;;
20318;SDS011;10317;47.254;11.314;2022-08-19T09:25:16;3.17;;;2.97;;
20318;SDS011;10317;47.254;11.314;2022-08-19T09:27:43;3.30;;;2.97;;
20318;SDS011;10317;47.254;11.314;2022-08-19T09:30:11;5.30;;;2.72;;
20318;SDS011;10317;47.254;11.314;2022-08-19T09:32:40;4.28;;;3.15;;
20318;SDS011;10317;47.254;11.314;2022-08-19T09:35:07;3.42;;;3.22;;
20318;SDS011;10317;47.254;11.314;2022-08-19T09:37:34;3.58;;;3.38;;
20318;SDS011;10317;47.254;11.314;2022-08-19T09:39:59;3.72;;;3.40;;
20318;SDS011;10317;47.254;11.314;2022-08-19T09:42:25;3.25;;;2.95;;
20318;SDS011;10317;47.254;11.314;2022-08-19T09:44:51;4.72;;;3.33;;
20318;SDS011;10317;47.254;11.314;2022-08-19T09:47:17;5.20;;;3.85;;
20318;SDS011;10317;47.254;11.314;2022-08-19T09:49:42;6.10;;;3.38;;
20318;SDS011;10317;47.254;11.314;2022-08-19T09:52:09;4.18;;;3.67;;
20318;SDS011;10317;47.254;11.314;2022-08-19T09:54:36;3.28;;;2.70;;
20318;SDS011;10317;47.254;11.314;2022-08-19T09:57:05;3.63;;;3.30;;
20318;SDS011;10317;47.254;11.314;2022-08-19T09:59:31;2.92;;;2.58;;
20318;SDS011;10317;47.254;11.314;2022-08-19T10:01:57;4.00;;;3.70;;
20318;SDS011;10317;47.254;11.314;2022-08-19T10:04:22;4.35;;;3.65;;
20318;SDS011;10317;47.254;11.314;2022-08-19T10:07:08;4.43;;;3.63;;
20318;SDS011;10317;47.254;11.314;2022-08-19T10:09:34;6.05;;;3.92;;
20318;SDS011;10317;47.254;11.314;2022-08-19T10:12:02;3.75;;;3.40;;
20318;SDS011;10317;47.254;11.314;2022-08-19T10:14:29;4.18;;;3.60;;
20318;SDS011;10317;47.254;11.314;2022-08-19T10:16:55;6.43;;;3.95;;
20318;SDS011;10317;47.254;11.314;2022-08-19T10:19:22;3.60;;;3.30;;
20318;SDS011;10317;47.254;11.314;2022-08-19T10:21:47;3.60;;;3.30;;
20318;SDS011;10317;47.254;11.314;2022-08-19T10:24:13;3.13;;;2.92;;
20318;SDS011;10317;47.254;11.314;2022-08-19T10:26:39;4.25;;;3.85;;
20318;SDS011;10317;47.254;11.314;2022-08-19T10:29:12;2.90;;;2.70;;
20318;SDS011;10317;47.254;11.314;2022-08-19T10:31:41;3.95;;;3.65;;
20318;SDS011;10317;47.254;11.314;2022-08-19T10:34:07;3.58;;;3.03;;
20318;SDS011;10317;47.254;11.314;2022-08-19T10:36:35;5.13;;;3.45;;
20318;SDS011;10317;47.254;11.314;2022-08-19T10:39:06;3.13;;;2.80;;
20318;SDS011;10317;47.254;11.314;2022-08-19T10:41:34;3.92;;;2.92;;
20318;SDS011;10317;47.254;11.314;2022-08-19T10:44:03;3.25;;;3.00;;
20318;SDS011;10317;47.254;11.314;2022-08-19T10:46:35;2.97;;;2.78;;
20318;SDS011;10317;47.254;11.314;2022-08-19T10:49:05;3.47;;;3.17;;
20318;SDS011;10317;47.254;11.314;2022-08-19T10:51:31;4.57;;;3.70;;
20318;SDS011;10317;47.254;11.314;2022-08-19T10:54:16;2.95;;;2.67;;
20318;SDS011;10317;47.254;11.314;2022-08-19T10:56:42;2.80;;;2.58;;
20318;SDS011;10317;47.254;11.314;2022-08-19T10:59:29;3.28;;;2.38;;
20318;SDS011;10317;47.254;11.314;2022-08-19T11:01:58;2.70;;;2.50;;
20318;SDS011;10317;47.254;11.314;2022-08-19T11:04:25;3.00;;;2.80;;
20318;SDS011;10317;47.254;11.314;2022-08-19T11:06:51;2.20;;;2.00;;
20318;SDS011;10317;47.254;11.314;2022-08-19T11:09:18;2.00;;;1.90;;
20318;SDS011;10317;47.254;11.314;2022-08-19T11:11:47;1.55;;;1.55;;
20318;SDS011;10317;47.254;11.314;2022-08-19T11:14:14;2.08;;;1.77;;
20318;SDS011;10317;47.254;11.314;2022-08-19T11:16:43;1.52;;;1.42;;
20318;SDS011;10317;47.254;11.314;2022-08-19T11:19:09;1.70;;;1.60;;
20318;SDS011;10317;47.254;11.314;2022-08-19T11:21:38;2.25;;;1.83;;
20318;SDS011;10317;47.254;11.314;2022-08-19T11:24:07;1.90;;;1.80;;
20318;SDS011;10317;47.254;11.314;2022-08-19T11:26:35;2.20;;;1.75;;
20318;SDS011;10317;47.254;11.314;2022-08-19T11:29:03;1.90;;;1.80;;
20318;SDS011;10317;47.254;11.314;2022-08-19T11:31:30;1.42;;;1.42;;
20318;SDS011;10317;47.254;11.314;2022-08-19T11:33:58;1.08;;;1.08;;
20318;SDS011;10317;47.254;11.314;2022-08-19T11:36:26;1.35;;;1.25;;
20318;SDS011;10317;47.254;11.314;2022-08-19T11:38:53;0.82;;;0.80;;
20318;SDS011;10317;47.254;11.314;2022-08-19T11:41:20;0.95;;;0.95;;
20318;SDS011;10317;47.254;11.314;2022-08-19T11:43:48;1.20;;;1.00;;
20318;SDS011;10317;47.254;11.314;2022-08-19T11:46:15;0.88;;;0.88;;
20318;SDS011;10317;47.254;11.314;2022-08-19T11:48:41;1.48;;;0.88;;
20318;SDS011;10317;47.254;11.314;2022-08-19T11:51:12;2.83;;;0.73;;
20318;SDS011;10317;47.254;11.314;2022-08-19T11:53:41;0.73;;;0.73;;
20318;SDS011;10317;47.254;11.314;2022-08-19T11:56:07;0.77;;;0.70;;
20318;SDS011;10317;47.254;11.314;2022-08-19T11:58:34;0.77;;;0.77;;
20318;SDS011;10317;47.254;11.314;2022-08-19T12:01:00;0.75;;;0.75;;
20318;SDS011;10317;47.254;11.314;2022-08-19T12:03:26;0.88;;;0.88;;
20318;SDS011;10317;47.254;11.314;2022-08-19T12:05:52;0.70;;;0.70;;
20318;SDS011;10317;47.254;11.314;2022-08-19T12:08:18;0.90;;;0.90;;
20318;SDS011;10317;47.254;11.314;2022-08-19T12:10:44;1.00;;;1.00;;
20318;SDS011;10317;47.254;11.314;2022-08-19T12:13:11;0.68;;;0.68;;
20318;SDS011;10317;47.254;11.314;2022-08-19T12:15:43;5.63;;;1.92;;
20318;SDS011;10317;47.254;11.314;2022-08-19T12:18:10;0.80;;;0.80;;
20318;SDS011;10317;47.254;11.314;2022-08-19T12:20:39;0.73;;;0.73;;
20318;SDS011;10317;47.254;11.314;2022-08-19T12:23:06;2.55;;;0.70;;
20318;SDS011;10317;47.254;11.314;2022-08-19T12:25:34;0.63;;;0.60;;
20318;SDS011;10317;47.254;11.314;2022-08-19T12:28:00;0.60;;;0.60;;
20318;SDS011;10317;47.254;11.314;2022-08-19T12:30:27;0.50;;;0.50;;
20318;SDS011;10317;47.254;11.314;2022-08-19T12:32:52;2.15;;;1.05;;
20318;SDS011;10317;47.254;11.314;2022-08-19T12:35:19;0.40;;;0.40;;
20318;SDS011;10317;47.254;11.314;2022-08-19T12:37:45;0.90;;;0.50;;
20318;SDS011;10317;47.254;11.314;2022-08-19T12:40:12;0.60;;;0.60;;
20318;SDS011;10317;47.254;11.314;2022-08-19T12:42:40;0.68;;;0.68;;
20318;SDS011;10317;47.254;11.314;2022-08-19T12:45:07;1.35;;;0.60;;
20318;SDS011;10317;47.254;11.314;2022-08-19T12:47:35;0.50;;;0.50;;
20318;SDS011;10317;47.254;11.314;2022-08-19T12:50:01;0.63;;;0.57;;
20318;SDS011;10317;47.254;11.314;2022-08-19T12:52:26;0.75;;;0.70;;
20318;SDS011;10317;47.254;11.314;2022-08-19T12:54:53;0.98;;;0.90;;
20318;SDS011;10317;47.254;11.314;2022-08-19T12:57:24;0.55;;;0.55;;
20318;SDS011;10317;47.254;11.314;2022-08-19T12:59:52;0.70;;;0.70;;
20318;SDS011;10317;47.254;11.314;2022-08-19T13:02:20;0.68;;;0.68;;
20318;SDS011;10317;47.254;11.314;2022-08-19T13:04:47;1.08;;;0.50;;
20318;SDS011;10317;47.254;11.314;2022-08-19T13:07:13;1.00;;;0.60;;
20318;SDS011;10317;47.254;11.314;2022-08-19T13:09:39;1.15;;;1.08;;
20318;SDS011;10317;47.254;11.314;2022-08-19T13:12:07;0.88;;;0.88;;
20318;SDS011;10317;47.254;11.314;2022-08-19T13:14:38;1.00;;;0.80;;
20318;SDS011;10317;47.254;11.314;2022-08-19T13:17:05;0.63;;;0.63;;
20318;SDS011;10317;47.254;11.314;2022-08-19T13:19:31;0.50;;;0.50;;
20318;SDS011;10317;47.254;11.314;2022-08-19T13:21:57;0.70;;;0.70;;
20318;SDS011;10317;47.254;11.314;2022-08-19T13:24:23;0.63;;;0.63;;
20318;SDS011;10317;47.254;11.314;2022-08-19T13:26:49;0.80;;;0.80;;
20318;SDS011;10317;47.254;11.314;2022-08-19T13:29:15;0.90;;;0.50;;
20318;SDS011;10317;47.254;11.314;2022-08-19T13:31:59;0.50;;;0.50;;
20318;SDS011;10317;47.254;11.314;2022-08-19T13:34:43;0.88;;;0.40;;
20318;SDS011;10317;47.254;11.314;2022-08-19T13:37:11;1.02;;;0.60;;
20318;SDS011;10317;47.254;11.314;2022-08-19T13:39:37;0.65;;;0.63;;
20318;SDS011;10317;47.254;11.314;2022-08-19T13:42:03;0.60;;;0.60;;
20318;SDS011;10317;47.254;11.314;2022-08-19T13:44:29;0.85;;;0.85;;
20318;SDS011;10317;47.254;11.314;2022-08-19T13:47:00;2.50;;;0.68;;
20318;SDS011;10317;47.254;11.314;2022-08-19T13:49:30;1.10;;;0.70;;
20318;SDS011;10317;47.254;11.314;2022-08-19T13:51:58;0.70;;;0.70;;
20318;SDS011;10317;47.254;11.314;2022-08-19T13:54:24;2.20;;;1.10;;
20318;SDS011;10317;47.254;11.314;2022-08-19T13:56:50;3.05;;;1.90;;
20318;SDS011;10317;47.254;11.314;2022-08-19T13:59:15;1.70;;;1.30;;
20318;SDS011;10317;47.254;11.314;2022-08-19T14:01:42;1.27;;;1.20;;
20318;SDS011;10317;47.254;11.314;2022-08-19T14:04:08;0.90;;;0.85;;
20318;SDS011;10317;47.254;11.314;2022-08-19T14:06:34;6.32;;;1.45;;
20318;SDS011;10317;47.254;11.314;2022-08-19T14:08:59;10.68;;;2.15;;
20318;SDS011;10317;47.254;11.314;2022-08-19T14:11:26;4.63;;;1.63;;
20318;SDS011;10317;47.254;11.314;2022-08-19T14:13:53;4.20;;;1.20;;
20318;SDS011;10317;47.254;11.314;2022-08-19T14:16:19;5.47;;;1.50;;
20318;SDS011;10317;47.254;11.314;2022-08-19T14:18:46;3.10;;;1.38;;
20318;SDS011;10317;47.254;11.314;2022-08-19T14:21:16;5.03;;;1.27;;
20318;SDS011;10317;47.254;11.314;2022-08-19T14:23:45;1.05;;;1.02;;
20318;SDS011;10317;47.254;11.314;2022-08-19T14:26:13;1.70;;;1.60;;
20318;SDS011;10317;47.254;11.314;2022-08-19T14:28:41;1.30;;;0.98;;
20318;SDS011;10317;47.254;11.314;2022-08-19T14:31:08;4.78;;;1.20;;
20318;SDS011;10317;47.254;11.314;2022-08-19T14:33:35;1.13;;;1.13;;
20318;SDS011;10317;47.254;11.314;2022-08-19T14:36:01;3.78;;;1.25;;
20318;SDS011;10317;47.254;11.314;2022-08-19T14:38:27;2.83;;;1.55;;
20318;SDS011;10317;47.254;11.314;2022-08-19T14:41:07;4.47;;;1.52;;
20318;SDS011;10317;47.254;11.314;2022-08-19T14:43:35;3.35;;;1.10;;
20318;SDS011;10317;47.254;11.314;2022-08-19T14:46:01;2.25;;;1.63;;
20318;SDS011;10317;47.254;11.314;2022-08-19T14:48:27;2.17;;;1.52;;
20318;SDS011;10317;47.254;11.314;2022-08-19T14:50:53;3.40;;;1.27;;
20318;SDS011;10317;47.254;11.314;2022-08-19T14:53:18;2.28;;;1.27;;